Relevés horaires Laegern (Suisse)


Relevés horaires à Laegern - Dimanche 05 Sept. 2021
Heure UTC1 Température [°C] Vent [km/h] Hum. [%] Pres.4 [hPa] Visi. [Km] Nébu. [octa] Préc.5 [mm] Cond.
2m. Res. Ros. Dir.2 Vit. Moy. Raf.3
23:00 16.4 16.4 9.9 NE 0.0 -- 24.1 65 850(0.2/3h) -- -- -- --
22:00 17.2 17.2 10.0 ENE 0.0 -- 24.1 63 850(0.6/3h) -- -- -- --
21:00 17.6 17.6 10.9 ENE 0.0 -- 29.6 65 850(0.7/3h) -- -- -- --
20:00 17.5 17.5 11.1 NE 0.0 -- 27.8 66 850(1.1/3h) -- -- -- --
19:00 18.1 18.1 11.7 NE 0.0 -- 29.6 66 850(0.9/3h) -- -- -- --
18:00 19.5 19.5 10.9 NE 0.0 -- 22.2 58 850(0.6/3h) -- -- -- --
17:00 20.0 20.0 11.0 NNE 0.0 -- 20.4 56 850(0.0/3h) -- -- -- --
16:00 20.4 20.4 11.3 N 0.0 -- 20.4 56 850(-0.4/3h) -- -- -- --
15:00 20.8 20.8 10.2 N 0.0 -- 22.2 51 850(-0.5/3h) -- -- -- --
14:00 20.1 20.1 11.8 NNE 0.0 -- 22.2 59 850(-0.3/3h) -- -- -- --
13:00 19.7 19.7 11.8 NNE 0.0 -- 18.5 60 850(0.1/3h) -- -- -- --
12:00 18.7 18.7 11.2 NE 0.0 -- 16.7 62 850(0.3/3h) -- -- -- --
11:00 18.0 18.0 10.7 N 0.0 -- 11.1 62 850(0.6/3h) -- -- -- --
10:00 19.6 19.6 12.8 S 0.0 -- 9.3 65 850(0.7/3h) -- -- -- --
09:00 16.4 16.4 12.1 N 0.0 -- 16.7 76 850(0.8/3h) -- -- -- --
08:00 16.9 16.9 12.5 E 0.0 -- 11.1 75 850 -- -- -- --
07:00 14.9 14.9 10.2 SSE 0.0 -- 16.7 73 850(1.0/3h) -- -- -- --
06:00 15.6 15.6 9.6 SSE 0.0 -- 18.5 67 850(0.8/3h) -- -- -- --
05:00 16.3 16.3 9.2 SSE 0.0 -- 16.7 63 850(0.3/3h) -- -- -- --
04:00 15.7 15.7 9.9 SE 0.0 -- 18.5 68 850(0.4/3h) -- -- -- --
03:00 16.8 16.8 9.6 E 0.0 -- 16.7 62 850(0.4/3h) -- -- -- --
02:00 16.9 16.9 9.0 ESE 0.0 -- 9.3 60 850(0.2/3h) -- -- -- --
01:00 16.4 16.4 10.2 SSE 0.0 -- 16.7 67 850(-0.2/3h) -- -- -- --
00:00 18.1 18.1 9.4 E 0.0 -- 18.5 57 850(0.0/3h) -- -- -- --

1 Coordinated Universal Time. Actuellement il est 12:00 locale et 10:00 UTC.

2 Le vent souffle depuis la direction indiquée vers la direction oposée.

3 Les rafales max. sont disponible 40 min après l'heure du relevé.

4 Pour les stations d'altitude (plus de 600m) le géopotentiel du niveau le plus proche de la pression obligatoire est indiqué.

5 Les stations disposant d'un diffuseur peuvent indiquer "trace". Cela signifie que des précipitations ont touchés le sol mais que la quantité est inférieure à 0.1 mm.

Copyright

Les données affichées sur cette page sont la propriété exclusive de Météo Suisse.

Récapitulatif de la journée
Température [°C] Vent [km/h] Ensoleillement4 [h] Precipitations totale5 [mm] Pression [Hpa]
Min1 Max.2 Moy.3 Max. Min Max.
15.5 20.9 0 29.6 12 h 12 min 0 850.0 850.0

1 Température minimale relevée entre 18:00 UTC la veille et 18:00 UTC le jour donné.

2 Température maximale relevée entre 06:00 UTC le jour donné et 06:00 UTC le lendemain.

3 Vent moyen de la journée basé sur les relevés horaires.

4 Ensoleillement en heures relevé entre 06:00 UTC la veille et 06:00 UTC le jour donné.

5 Précipitations totales tombées entre 06:00 UTC la jour donné et 06:00 UTC le lendemain.

Graphiques horaires